Time;durP1;ratioP1;P1;durP2;ratioP2;P2;SDS_P1;SDS_P2;PMS_P1;PMS_P2;Temp;Humidity;BMP_temperature;BMP_pressure;BME280_temperature;BME280_humidity;BME280_pressure;Samples;Min_cycle;Max_cycle;Signal;HPM_P1;HPM_P2
2024/03/05 00:00:10;;;;;;;84.20;30.48;;;6.00;99.90;;;;;;5075527;28;20497;-68
2024/03/05 00:02:38;;;;;;;78.93;31.35;;;6.00;99.90;;;;;;5075663;28;20024;-68
2024/03/05 00:05:04;;;;;;;76.72;30.40;;;6.00;99.90;;;;;;5075945;28;20032;-68
2024/03/05 00:07:29;;;;;;;92.50;33.75;;;6.00;99.90;;;;;;5075791;28;20078;-69
2024/03/05 00:09:55;;;;;;;100.78;36.28;;;6.00;99.90;;;;;;5075359;28;20489;-69
2024/03/05 00:12:20;;;;;;;89.97;33.80;;;6.10;99.90;;;;;;5075340;28;20077;-69
2024/03/05 00:14:46;;;;;;;92.05;34.05;;;6.10;99.90;;;;;;5075189;28;20028;-68
2024/03/05 00:17:12;;;;;;;86.55;32.55;;;6.10;99.90;;;;;;5075830;28;20040;-69
2024/03/05 00:19:38;;;;;;;74.90;30.40;;;6.10;99.90;;;;;;5075711;28;20471;-68
2024/03/05 00:22:03;;;;;;;77.22;31.08;;;6.10;99.90;;;;;;5075117;28;20078;-68
2024/03/05 00:24:29;;;;;;;71.50;30.52;;;6.10;99.90;;;;;;5075589;28;20036;-68
2024/03/05 00:26:56;;;;;;;68.82;28.50;;;6.00;99.90;;;;;;5075476;28;20032;-68
2024/03/05 00:29:21;;;;;;;60.13;26.60;;;5.90;99.90;;;;;;5075282;28;20067;-68
2024/03/05 00:31:47;;;;;;;70.78;30.50;;;5.80;99.90;;;;;;5075044;28;20025;-68
2024/03/05 00:34:13;;;;;;;83.03;32.42;;;5.80;99.90;;;;;;5074633;28;20044;-68
2024/03/05 00:36:38;;;;;;;92.70;33.78;;;5.70;99.90;;;;;;5075455;28;20032;-68
2024/03/05 00:39:04;;;;;;;77.50;31.48;;;5.60;99.90;;;;;;5075267;28;20052;-68
2024/03/05 00:41:29;;;;;;;79.53;33.20;;;5.50;99.90;;;;;;5075176;28;20432;-68
2024/03/05 00:43:55;;;;;;;72.95;30.98;;;5.50;99.90;;;;;;5075251;28;20501;-69
2024/03/05 00:46:21;;;;;;;80.65;32.55;;;5.40;99.90;;;;;;5074718;28;20385;-68
2024/03/05 00:48:46;;;;;;;97.10;37.58;;;5.30;99.90;;;;;;5074684;28;20141;-68
2024/03/05 00:51:12;;;;;;;81.90;33.70;;;5.30;99.90;;;;;;5075142;28;20033;-68
2024/03/05 00:53:38;;;;;;;83.25;32.42;;;5.20;99.90;;;;;;5074637;28;20028;-68
2024/03/05 00:56:03;;;;;;;87.22;34.10;;;5.10;99.90;;;;;;5074967;28;20028;-68
2024/03/05 00:58:29;;;;;;;80.72;32.25;;;5.10;99.90;;;;;;5074612;28;20367;-68
2024/03/05 01:00:54;;;;;;;88.72;33.65;;;5.10;99.90;;;;;;5074828;28;20025;-68
2024/03/05 01:03:20;;;;;;;98.18;34.28;;;5.10;99.90;;;;;;5074794;28;20382;-67
2024/03/05 01:05:47;;;;;;;81.63;33.08;;;5.10;99.90;;;;;;5074353;28;20440;-68
2024/03/05 01:08:12;;;;;;;95.10;33.60;;;5.10;99.90;;;;;;5074274;28;20037;-68
2024/03/05 01:10:39;;;;;;;86.75;32.47;;;5.20;99.90;;;;;;5074871;28;20085;-68
2024/03/05 01:13:04;;;;;;;99.82;33.53;;;5.20;99.90;;;;;;5074600;28;20024;-68
2024/03/05 01:15:30;;;;;;;98.88;35.40;;;5.20;99.90;;;;;;5074073;28;20478;-68
2024/03/05 01:17:57;;;;;;;100.05;35.97;;;5.30;99.90;;;;;;5074329;28;20036;-67
2024/03/05 01:20:22;;;;;;;104.47;36.20;;;5.30;99.90;;;;;;5074072;28;20017;-67
2024/03/05 01:22:48;;;;;;;180.07;42.83;;;5.40;99.90;;;;;;5074049;28;20096;-67
2024/03/05 01:25:14;;;;;;;120.35;38.05;;;5.60;99.90;;;;;;5074389;28;20032;-67
2024/03/05 01:27:39;;;;;;;136.73;39.00;;;5.70;99.90;;;;;;5074482;28;20024;-67
2024/03/05 01:30:11;;;;;;;140.38;37.58;;;5.70;99.90;;;;;;5074296;28;20029;-67
2024/03/05 01:32:38;;;;;;;104.88;36.85;;;5.70;99.90;;;;;;5074233;28;20037;-69
2024/03/05 01:35:09;;;;;;;85.15;33.33;;;5.80;99.90;;;;;;5073778;28;20521;-67
2024/03/05 01:37:35;;;;;;;188.20;39.42;;;5.90;99.90;;;;;;5073716;28;20031;-67
2024/03/05 01:40:01;;;;;;;159.50;42.13;;;5.90;99.90;;;;;;5074060;28;20035;-67
2024/03/05 01:42:26;;;;;;;106.28;38.72;;;5.90;99.90;;;;;;5074062;28;20108;-68
2024/03/05 01:44:52;;;;;;;196.48;43.30;;;6.00;99.90;;;;;;5074008;28;20036;-67
2024/03/05 01:47:17;;;;;;;126.78;36.42;;;6.00;99.90;;;;;;5074052;28;20456;-68
2024/03/05 01:49:43;;;;;;;497.25;56.22;;;6.00;99.90;;;;;;5074011;28;20035;-68
2024/03/05 01:52:09;;;;;;;179.23;42.30;;;6.00;99.90;;;;;;5074002;28;20116;-67
2024/03/05 01:54:35;;;;;;;191.88;43.15;;;6.10;99.90;;;;;;5073524;28;20491;-67
2024/03/05 01:57:03;;;;;;;173.75;43.17;;;6.10;99.90;;;;;;5073791;28;20031;-67
2024/03/05 01:59:29;;;;;;;128.40;40.15;;;6.10;99.90;;;;;;5073664;28;20025;-67
2024/03/05 02:01:56;;;;;;;147.45;43.55;;;6.20;99.90;;;;;;5073312;28;20493;-67
2024/03/05 02:04:23;;;;;;;119.07;39.55;;;6.10;99.90;;;;;;5073337;28;20028;-67
2024/03/05 02:06:51;;;;;;;134.50;41.38;;;6.20;99.90;;;;;;5073232;28;20028;-67
2024/03/05 02:09:18;;;;;;;123.13;40.65;;;6.20;99.90;;;;;;5073711;28;20479;-67
2024/03/05 02:11:44;;;;;;;126.93;40.33;;;6.20;99.90;;;;;;5073642;28;20531;-67
2024/03/05 02:14:10;;;;;;;154.95;43.22;;;6.10;99.90;;;;;;5073514;28;20115;-67
2024/03/05 02:16:36;;;;;;;173.27;45.83;;;6.10;99.90;;;;;;5073380;28;20025;-67
2024/03/05 02:19:04;;;;;;;165.05;45.05;;;6.00;99.90;;;;;;5073457;28;20174;-67
2024/03/05 02:21:31;;;;;;;123.88;40.90;;;6.00;99.90;;;;;;5073444;28;20043;-67
2024/03/05 02:23:57;;;;;;;182.23;45.78;;;6.00;99.90;;;;;;5073409;28;20544;-67
2024/03/05 02:26:25;;;;;;;156.43;45.53;;;6.00;99.90;;;;;;5073528;28;20508;-67
2024/03/05 02:28:52;;;;;;;121.45;38.97;;;6.00;99.90;;;;;;5073508;28;20478;-67
2024/03/05 02:31:18;;;;;;;114.95;38.63;;;5.90;99.90;;;;;;5073313;28;20050;-68
2024/03/05 02:33:46;;;;;;;130.27;41.08;;;6.00;99.90;;;;;;5073386;28;20052;-67
2024/03/05 02:36:11;;;;;;;139.40;39.90;;;5.90;99.90;;;;;;5073426;28;20020;-67
2024/03/05 02:38:38;;;;;;;138.48;41.17;;;5.90;99.90;;;;;;5073267;28;20077;-68
2024/03/05 02:41:04;;;;;;;122.93;38.45;;;5.90;99.90;;;;;;5073255;28;20031;-68
2024/03/05 02:43:30;;;;;;;132.60;40.33;;;5.90;99.90;;;;;;5072841;28;20033;-68
2024/03/05 02:45:56;;;;;;;131.13;39.65;;;5.90;99.90;;;;;;5073220;28;20032;-68
2024/03/05 02:48:22;;;;;;;126.13;40.35;;;6.00;99.90;;;;;;5073287;28;20390;-68
2024/03/05 02:50:48;;;;;;;120.30;38.70;;;5.90;99.90;;;;;;5073149;28;20464;-67
2024/03/05 02:53:14;;;;;;;119.45;38.28;;;6.00;99.90;;;;;;5072835;28;20024;-67
2024/03/05 02:55:41;;;;;;;115.78;38.33;;;6.00;99.90;;;;;;5073033;28;20064;-67
2024/03/05 02:58:07;;;;;;;112.43;37.95;;;6.10;99.90;;;;;;5073045;28;20020;-68
2024/03/05 03:00:33;;;;;;;110.30;36.60;;;6.10;99.90;;;;;;5053041;28;20039;-67
2024/03/05 03:02:59;;;;;;;126.88;40.92;;;6.10;99.90;;;;;;5052982;28;20473;-67
2024/03/05 03:05:25;;;;;;;112.18;37.47;;;6.20;99.90;;;;;;5052724;28;20025;-67
2024/03/05 03:07:51;;;;;;;115.82;38.22;;;6.20;99.90;;;;;;5053053;28;20044;-67
2024/03/05 03:10:17;;;;;;;104.35;36.85;;;6.20;99.90;;;;;;5053043;28;20035;-68
2024/03/05 03:12:45;;;;;;;113.55;36.67;;;6.20;99.90;;;;;;5052955;28;20475;-68
2024/03/05 03:15:11;;;;;;;99.93;36.33;;;6.20;99.90;;;;;;5052527;28;20031;-68
2024/03/05 03:17:40;;;;;;;100.22;35.45;;;6.10;99.90;;;;;;5055579;28;20029;-67
2024/03/05 03:20:07;;;;;;;100.03;34.30;;;6.00;99.90;;;;;;5056614;28;20078;-68
2024/03/05 03:22:33;;;;;;;102.95;36.53;;;5.90;99.90;;;;;;5056641;28;20032;-67
2024/03/05 03:24:59;;;;;;;101.88;34.40;;;5.80;99.90;;;;;;5056380;28;20028;-68
2024/03/05 03:27:24;;;;;;;97.65;35.10;;;5.70;99.90;;;;;;5056653;28;20025;-67
2024/03/05 03:29:51;;;;;;;89.15;30.95;;;5.60;99.90;;;;;;5056555;28;20035;-67
2024/03/05 03:32:19;;;;;;;106.13;37.38;;;5.50;99.90;;;;;;5056254;28;20040;-68
2024/03/05 03:34:45;;;;;;;88.97;33.45;;;5.40;99.90;;;;;;5056082;28;20068;-68
2024/03/05 03:37:12;;;;;;;86.97;31.67;;;5.40;99.90;;;;;;5056093;28;20471;-68
2024/03/05 03:39:41;;;;;;;92.88;32.00;;;5.30;99.90;;;;;;5055893;28;20049;-67
2024/03/05 03:42:09;;;;;;;103.78;34.25;;;5.30;99.90;;;;;;5056231;28;20027;-68
2024/03/05 03:44:35;;;;;;;100.20;34.90;;;5.20;99.90;;;;;;5055791;28;20028;-67
2024/03/05 03:47:00;;;;;;;102.63;35.38;;;5.20;99.90;;;;;;5056285;28;20033;-67
2024/03/05 03:49:26;;;;;;;99.85;33.92;;;5.20;99.90;;;;;;5056143;28;20040;-67
2024/03/05 03:51:53;;;;;;;98.60;33.63;;;5.20;99.90;;;;;;5056129;28;20034;-68
2024/03/05 03:54:20;;;;;;;101.60;33.60;;;5.20;99.90;;;;;;5056022;28;20471;-67
2024/03/05 03:56:45;;;;;;;95.85;31.98;;;5.20;99.90;;;;;;5056040;28;20025;-66
2024/03/05 03:59:13;;;;;;;85.00;31.48;;;5.30;99.90;;;;;;5056080;28;20388;-66
2024/03/05 04:01:38;;;;;;;95.88;33.80;;;5.30;99.90;;;;;;5055870;28;20036;-66
2024/03/05 04:04:04;;;;;;;89.85;33.05;;;5.40;99.90;;;;;;5055894;28;20024;-66
2024/03/05 04:06:31;;;;;;;90.13;33.30;;;5.40;99.90;;;;;;5055915;28;20055;-66
2024/03/05 04:08:56;;;;;;;93.90;33.03;;;5.40;99.90;;;;;;5055833;28;20469;-66
2024/03/05 04:11:22;;;;;;;93.15;32.75;;;5.50;99.90;;;;;;5055664;28;20072;-66
2024/03/05 04:13:49;;;;;;;92.30;33.33;;;5.60;99.90;;;;;;5055296;28;20127;-66
2024/03/05 04:16:14;;;;;;;98.70;32.20;;;5.60;99.90;;;;;;5055765;28;20467;-66
2024/03/05 04:18:40;;;;;;;102.35;34.85;;;5.70;99.90;;;;;;5055207;28;20021;-66
2024/03/05 04:21:06;;;;;;;111.50;35.33;;;5.80;99.90;;;;;;5055365;28;20029;-66
2024/03/05 04:23:32;;;;;;;117.20;36.67;;;6.10;99.90;;;;;;5055497;28;20021;-66
2024/03/05 04:26:01;;;;;;;111.05;35.97;;;6.30;99.90;;;;;;5055108;28;20028;-66
2024/03/05 04:28:35;;;;;;;106.32;35.15;;;6.40;99.90;;;;;;5055157;28;20033;-66
2024/03/05 04:31:07;;;;;;;106.07;34.42;;;6.30;99.90;;;;;;5055370;28;20035;-66
2024/03/05 04:33:33;;;;;;;100.80;33.50;;;6.20;99.90;;;;;;5055168;28;20051;-66
2024/03/05 04:35:59;;;;;;;99.75;33.10;;;6.20;99.90;;;;;;5055033;28;20478;-66
2024/03/05 04:38:26;;;;;;;105.70;33.90;;;6.20;99.90;;;;;;5055242;28;20021;-66
2024/03/05 04:40:52;;;;;;;95.43;32.67;;;6.10;99.90;;;;;;5055254;28;20032;-66
2024/03/05 04:43:18;;;;;;;99.40;32.90;;;6.10;99.90;;;;;;5055162;28;20471;-67
2024/03/05 04:45:43;;;;;;;94.38;34.42;;;6.10;99.90;;;;;;5055509;28;20044;-66
2024/03/05 04:48:09;;;;;;;90.50;33.45;;;6.10;99.90;;;;;;5055009;28;20040;-67
2024/03/05 04:50:35;;;;;;;96.80;35.53;;;6.10;99.90;;;;;;5054620;28;20031;-67
2024/03/05 04:53:00;;;;;;;89.32;33.65;;;6.10;99.90;;;;;;5054937;28;20399;-67
2024/03/05 04:55:26;;;;;;;88.55;34.50;;;6.10;99.90;;;;;;5054533;28;20039;-67
2024/03/05 04:57:52;;;;;;;94.68;33.28;;;6.10;99.90;;;;;;5054917;28;20479;-67
2024/03/05 05:00:20;;;;;;;87.13;32.00;;;6.10;99.90;;;;;;5054860;28;20076;-67
2024/03/05 05:02:47;;;;;;;91.22;32.85;;;6.10;99.90;;;;;;5054988;28;20025;-67
2024/03/05 05:05:13;;;;;;;92.07;34.90;;;6.10;99.90;;;;;;5054829;28;20039;-67
2024/03/05 05:07:39;;;;;;;96.10;35.08;;;6.10;99.90;;;;;;5054707;28;20402;-67
2024/03/05 05:10:07;;;;;;;93.80;33.50;;;6.10;99.90;;;;;;5054629;28;20033;-67
2024/03/05 05:12:33;;;;;;;94.35;35.22;;;6.10;99.90;;;;;;5054657;28;20036;-67
2024/03/05 05:15:00;;;;;;;92.78;32.20;;;6.10;99.90;;;;;;5054318;28;20036;-67
2024/03/05 05:17:25;;;;;;;96.00;32.88;;;6.10;99.90;;;;;;5054117;28;20014;-67
2024/03/05 05:19:51;;;;;;;85.68;33.92;;;6.10;99.90;;;;;;5054512;28;20047;-67
2024/03/05 05:22:17;;;;;;;91.80;31.98;;;6.10;99.90;;;;;;5054098;28;20022;-67
2024/03/05 05:24:43;;;;;;;88.00;31.83;;;6.10;99.90;;;;;;5054514;28;20448;-67
2024/03/05 05:27:09;;;;;;;91.18;32.50;;;6.10;99.90;;;;;;5054403;28;20024;-67
2024/03/05 05:29:36;;;;;;;81.07;31.13;;;6.10;99.90;;;;;;5054229;28;20475;-67
2024/03/05 05:32:03;;;;;;;84.25;31.38;;;6.10;99.90;;;;;;5054333;28;20387;-67
2024/03/05 05:34:28;;;;;;;88.50;33.38;;;6.10;99.90;;;;;;5053821;28;20056;-67
2024/03/05 05:36:54;;;;;;;93.57;33.90;;;6.10;99.90;;;;;;5054235;28;20029;-67
2024/03/05 05:39:24;;;;;;;95.68;32.88;;;6.10;99.90;;;;;;5053662;28;20074;-67
2024/03/05 05:41:52;;;;;;;86.65;33.78;;;6.20;99.90;;;;;;5054096;28;20395;-67
2024/03/05 05:44:18;;;;;;;93.07;34.15;;;6.20;99.90;;;;;;5053997;28;20490;-67
2024/03/05 05:46:45;;;;;;;95.53;33.92;;;6.20;99.90;;;;;;5054024;28;20441;-67
2024/03/05 05:49:13;;;;;;;92.53;34.65;;;6.20;99.90;;;;;;5053823;28;20025;-67
2024/03/05 05:51:39;;;;;;;85.70;32.67;;;6.20;99.90;;;;;;5053827;28;20116;-67
2024/03/05 05:54:10;;;;;;;98.88;34.53;;;6.20;99.90;;;;;;5053631;28;20163;-67
2024/03/05 05:56:36;;;;;;;111.05;38.35;;;6.20;99.90;;;;;;5053704;28;20387;-67
2024/03/05 05:59:06;;;;;;;95.75;36.78;;;6.20;99.90;;;;;;5053260;28;20108;-67
2024/03/05 06:01:33;;;;;;;101.20;35.30;;;6.30;99.90;;;;;;5053814;28;20021;-67
2024/03/05 06:03:59;;;;;;;108.32;38.45;;;6.30;99.90;;;;;;5053708;28;20025;-67
2024/03/05 06:06:25;;;;;;;102.97;34.50;;;6.30;99.90;;;;;;5053762;28;20463;-67
2024/03/05 06:08:51;;;;;;;98.03;35.53;;;6.30;99.90;;;;;;5053708;28;20075;-67
2024/03/05 06:11:17;;;;;;;119.18;38.75;;;6.30;99.90;;;;;;5053731;28;20082;-67
2024/03/05 06:13:43;;;;;;;120.28;37.97;;;6.40;99.90;;;;;;5053816;28;20036;-66
2024/03/05 06:16:09;;;;;;;108.47;36.22;;;6.40;99.90;;;;;;5053284;28;20386;-67
2024/03/05 06:18:36;;;;;;;119.47;37.28;;;6.40;99.90;;;;;;5053095;28;20112;-67
2024/03/05 06:21:04;;;;;;;133.10;39.90;;;6.50;99.90;;;;;;5053006;28;20052;-67
2024/03/05 06:23:29;;;;;;;134.52;41.60;;;6.60;99.90;;;;;;5053525;28;20096;-67
2024/03/05 06:25:55;;;;;;;119.88;38.40;;;6.60;99.90;;;;;;5053323;28;20031;-67
2024/03/05 06:28:21;;;;;;;122.00;38.50;;;6.60;99.90;;;;;;5053328;28;20029;-67
2024/03/05 06:30:49;;;;;;;132.70;40.67;;;6.70;99.90;;;;;;5053421;28;20082;-67
2024/03/05 06:33:17;;;;;;;114.28;36.97;;;6.70;99.90;;;;;;5053212;28;20036;-67
2024/03/05 06:35:43;;;;;;;117.22;38.65;;;6.70;99.90;;;;;;5052985;28;20025;-67
2024/03/05 06:38:09;;;;;;;139.85;40.70;;;6.70;99.90;;;;;;5053241;28;20467;-67
2024/03/05 06:40:36;;;;;;;143.52;41.67;;;6.70;99.90;;;;;;5053258;28;20026;-67
2024/03/05 06:43:04;;;;;;;146.07;41.15;;;6.80;99.90;;;;;;5053171;28;20025;-67
2024/03/05 06:45:30;;;;;;;149.30;41.92;;;6.80;99.90;;;;;;5053168;28;20479;-68
2024/03/05 06:47:57;;;;;;;148.88;43.67;;;6.80;99.90;;;;;;5052626;28;20078;-69
2024/03/05 06:50:23;;;;;;;155.52;44.50;;;6.80;99.90;;;;;;5054168;28;20031;-70
2024/03/05 06:58:22;;;;;;;158.43;46.17;;;6.90;99.90;;;;;;5056948;28;20032;-70
2024/03/05 07:00:49;;;;;;;163.20;43.47;;;6.90;99.90;;;;;;5056883;28;20056;-70
2024/03/05 07:03:14;;;;;;;167.40;45.85;;;6.90;99.90;;;;;;5055553;28;20033;-71
2024/03/05 07:05:40;;;;;;;165.40;44.45;;;7.00;99.90;;;;;;5057163;28;20040;-71
2024/03/05 07:08:08;;;;;;;166.35;44.28;;;7.00;99.90;;;;;;5057654;28;20025;-71
2024/03/05 07:10:34;;;;;;;165.73;44.83;;;7.00;99.90;;;;;;5056006;28;20091;-71
2024/03/05 07:13:01;;;;;;;173.07;45.03;;;7.00;99.90;;;;;;5056692;28;20029;-70
2024/03/05 07:15:26;;;;;;;164.32;46.33;;;7.10;99.90;;;;;;5056153;28;20025;-71
2024/03/05 07:17:51;;;;;;;159.80;46.60;;;7.10;99.90;;;;;;5050541;28;20037;-70
2024/03/05 07:20:18;;;;;;;153.38;45.15;;;7.20;99.90;;;;;;5060288;28;20033;-71
2024/03/05 07:22:46;;;;;;;166.02;45.70;;;7.30;99.90;;;;;;5061595;28;20017;-70
2024/03/05 07:25:14;;;;;;;168.07;48.75;;;7.30;99.90;;;;;;5063250;28;20117;-72
2024/03/05 07:27:44;;;;;;;154.18;45.00;;;7.30;99.90;;;;;;5061678;28;20680;-71
2024/03/05 07:30:12;;;;;;;162.82;44.17;;;7.50;99.90;;;;;;5061625;28;20025;-70
2024/03/05 07:32:38;;;;;;;159.55;45.88;;;7.40;99.90;;;;;;5059316;28;20074;-70
2024/03/05 07:35:08;;;;;;;152.55;43.72;;;7.50;99.90;;;;;;5056778;28;20049;-71
2024/03/05 07:37:34;;;;;;;170.52;44.20;;;7.50;99.90;;;;;;5056698;28;20021;-70
2024/03/05 07:40:09;;;;;;;173.38;45.70;;;7.40;99.90;;;;;;5054876;28;20032;-70
2024/03/05 07:42:39;;;;;;;169.27;45.17;;;7.40;99.90;;;;;;5054456;28;20434;-71
2024/03/05 07:45:07;;;;;;;182.93;47.22;;;7.50;99.90;;;;;;5055872;28;20483;-71
2024/03/05 07:47:33;;;;;;;182.75;49.80;;;7.50;99.90;;;;;;5056150;28;20441;-71
2024/03/05 07:49:58;;;;;;;189.25;47.63;;;7.60;99.90;;;;;;5054745;28;20037;-71
2024/03/05 07:52:24;;;;;;;191.73;49.30;;;7.60;99.90;;;;;;5056007;28;20056;-71
2024/03/05 07:54:49;;;;;;;173.30;47.10;;;7.60;99.90;;;;;;5049678;28;20450;-71
2024/03/05 07:57:15;;;;;;;182.45;47.40;;;7.70;99.90;;;;;;5051473;28;20039;-70
2024/03/05 07:59:40;;;;;;;167.30;46.45;;;7.70;99.90;;;;;;5056312;28;20028;-70
2024/03/05 08:02:07;;;;;;;160.25;46.13;;;7.70;99.90;;;;;;5054372;28;20434;-70
2024/03/05 08:04:32;;;;;;;176.90;48.13;;;7.80;99.90;;;;;;5052938;28;20024;-70
2024/03/05 08:06:58;;;;;;;173.13;45.67;;;7.90;99.90;;;;;;5055337;28;20402;-72
2024/03/05 08:09:24;;;;;;;155.88;45.20;;;7.90;99.90;;;;;;5053395;28;20448;-72
2024/03/05 08:11:49;;;;;;;149.82;44.05;;;8.00;99.90;;;;;;5053559;28;20444;-72
2024/03/05 08:14:15;;;;;;;145.70;42.05;;;8.10;99.90;;;;;;5054680;28;20064;-69
2024/03/05 08:16:41;;;;;;;144.90;42.33;;;8.00;99.90;;;;;;5069553;28;20089;-68
2024/03/05 08:19:06;;;;;;;127.68;39.58;;;8.10;99.90;;;;;;5068279;28;20063;-68
2024/03/05 08:21:34;;;;;;;128.57;40.00;;;8.30;99.90;;;;;;5058490;28;20053;-68
2024/03/05 08:24:02;;;;;;;126.32;39.72;;;8.30;99.90;;;;;;5056914;28;20070;-68
2024/03/05 08:26:27;;;;;;;120.88;37.55;;;8.40;99.90;;;;;;5063802;28;20060;-68
2024/03/05 08:28:53;;;;;;;101.28;36.08;;;8.40;99.90;;;;;;5063148;28;20501;-69
2024/03/05 08:31:19;;;;;;;107.53;36.20;;;8.40;99.90;;;;;;5056726;28;20060;-68
2024/03/05 08:33:44;;;;;;;113.10;36.63;;;8.40;99.90;;;;;;5054957;28;20163;-68
2024/03/05 08:36:11;;;;;;;94.43;34.25;;;8.30;99.90;;;;;;5056647;28;20037;-69
2024/03/05 08:38:36;;;;;;;99.28;34.42;;;8.20;99.90;;;;;;5056072;28;20029;-69
2024/03/05 08:41:02;;;;;;;97.40;33.70;;;8.20;99.90;;;;;;5053389;28;20470;-69
2024/03/05 08:43:30;;;;;;;103.28;33.30;;;8.20;99.90;;;;;;5054504;28;20522;-69
2024/03/05 08:45:56;;;;;;;96.05;32.70;;;8.20;99.90;;;;;;5052855;28;20398;-68
2024/03/05 08:48:21;;;;;;;92.32;32.28;;;8.10;99.90;;;;;;5054835;28;20029;-69
2024/03/05 08:50:47;;;;;;;90.28;31.70;;;8.10;99.90;;;;;;5053020;28;20086;-68
2024/03/05 08:53:12;;;;;;;92.22;32.90;;;8.20;99.90;;;;;;5055267;28;20033;-69
2024/03/05 08:55:38;;;;;;;96.38;33.33;;;8.20;99.90;;;;;;5052655;28;20040;-71
2024/03/05 08:58:04;;;;;;;95.72;32.83;;;8.20;99.90;;;;;;5053003;28;20021;-69
2024/03/05 09:00:33;;;;;;;93.93;32.03;;;8.20;99.90;;;;;;5055412;28;20475;-70
2024/03/05 09:02:58;;;;;;;97.72;33.30;;;8.20;99.90;;;;;;5054046;28;20090;-69
2024/03/05 09:05:24;;;;;;;86.78;32.08;;;8.30;99.90;;;;;;5054948;28;20053;-70
2024/03/05 09:07:50;;;;;;;88.72;31.25;;;8.40;99.90;;;;;;5054328;28;20041;-73
2024/03/05 09:10:17;;;;;;;93.53;33.90;;;8.50;99.90;;;;;;5057489;28;20475;-70
2024/03/05 09:12:44;;;;;;;86.88;31.38;;;8.60;99.90;;;;;;5057403;28;20036;-68
2024/03/05 09:15:09;;;;;;;84.32;29.75;;;8.50;99.90;;;;;;5052458;28;20064;-69
2024/03/05 09:17:35;;;;;;;94.97;33.92;;;8.60;99.90;;;;;;5053611;28;20060;-69
2024/03/05 09:20:13;;;;;;;88.05;30.85;;;8.60;99.90;;;;;;5057416;28;20029;-68
2024/03/05 09:22:44;;;;;;;89.07;31.27;;;8.60;99.90;;;;;;5056512;28;20036;-68
2024/03/05 09:25:11;;;;;;;81.05;30.15;;;8.60;99.90;;;;;;5053165;28;20029;-68
2024/03/05 09:27:37;;;;;;;85.60;31.23;;;8.70;99.90;;;;;;5059826;28;20029;-69
2024/03/05 09:30:08;;;;;;;85.70;31.23;;;8.70;99.90;;;;;;5053808;28;20087;-69
2024/03/05 09:32:34;;;;;;;88.22;31.80;;;8.70;99.90;;;;;;5054631;28;20024;-66
2024/03/05 09:34:59;;;;;;;86.47;30.70;;;8.70;99.90;;;;;;5056414;28;20048;-67
2024/03/05 09:37:28;;;;;;;78.10;29.10;;;8.70;99.90;;;;;;5053711;28;20025;-68
2024/03/05 09:39:55;;;;;;;78.55;30.15;;;8.80;99.90;;;;;;5053309;28;20017;-67
2024/03/05 09:42:21;;;;;;;80.72;31.88;;;8.90;99.90;;;;;;5053614;28;20479;-68
2024/03/05 09:44:49;;;;;;;75.88;30.45;;;8.90;99.90;;;;;;5053836;28;20021;-67
2024/03/05 09:47:17;;;;;;;86.25;32.03;;;8.90;99.90;;;;;;5052859;28;20111;-68
2024/03/05 09:49:45;;;;;;;82.85;30.27;;;8.90;99.90;;;;;;5053197;28;20039;-70
2024/03/05 09:52:13;;;;;;;78.30;29.15;;;9.00;99.90;;;;;;5052596;28;20032;-68
2024/03/05 09:54:39;;;;;;;85.10;32.55;;;9.10;99.90;;;;;;5052335;28;20025;-69
2024/03/05 09:57:05;;;;;;;77.00;30.75;;;9.10;99.90;;;;;;5053561;28;20528;-70
2024/03/05 09:59:30;;;;;;;85.22;30.92;;;9.30;99.90;;;;;;5052713;28;20025;-67
2024/03/05 10:01:56;;;;;;;78.25;28.63;;;9.40;99.90;;;;;;5052565;28;20067;-70
2024/03/05 10:04:26;;;;;;;79.35;29.60;;;9.50;99.90;;;;;;5056280;28;20398;-70
2024/03/05 10:06:52;;;;;;;71.00;27.40;;;9.50;99.90;;;;;;5055860;28;20053;-67
2024/03/05 10:09:18;;;;;;;74.55;28.90;;;9.60;99.90;;;;;;5069021;28;20059;-67
2024/03/05 10:11:44;;;;;;;68.55;29.52;;;9.70;99.90;;;;;;5053870;28;20064;-68
2024/03/05 10:14:11;;;;;;;72.97;29.35;;;9.70;99.90;;;;;;5050233;28;20432;-66
2024/03/05 10:16:37;;;;;;;77.20;29.65;;;9.80;99.90;;;;;;5064419;28;20201;-67
2024/03/05 10:19:19;;;;;;;70.22;29.45;;;9.80;99.90;;;;;;5060690;28;20122;-67
2024/03/05 10:21:47;;;;;;;65.55;27.35;;;9.80;99.90;;;;;;5053809;28;20025;-66
2024/03/05 10:24:14;;;;;;;68.18;27.48;;;9.90;99.90;;;;;;5052613;28;20025;-67
2024/03/05 10:26:41;;;;;;;65.18;27.95;;;9.90;99.90;;;;;;5057523;28;21546;-67
2024/03/05 10:29:08;;;;;;;71.70;30.17;;;10.10;99.90;;;;;;5051174;28;20036;-66
2024/03/05 10:31:39;;;;;;;76.20;28.20;;;10.10;99.90;;;;;;5051313;28;20584;-67
2024/03/05 10:34:05;;;;;;;67.47;29.27;;;10.10;99.90;;;;;;5057719;28;20049;-65
2024/03/05 10:36:35;;;;;;;70.28;29.45;;;10.10;99.90;;;;;;5052256;28;20094;-67
2024/03/05 10:39:02;;;;;;;66.15;26.77;;;10.10;99.90;;;;;;5053863;28;20107;-65
2024/03/05 10:41:31;;;;;;;72.38;28.60;;;10.00;99.90;;;;;;5051822;28;20115;-66
2024/03/05 10:44:00;;;;;;;70.25;29.00;;;10.10;99.90;;;;;;5053206;28;20037;-66
2024/03/05 10:46:27;;;;;;;73.32;29.25;;;;;;;;;;5067737;28;20031;-67
2024/03/05 10:48:53;;;;;;;65.25;28.17;;;10.30;99.90;;;;;;5052679;28;20024;-67
2024/03/05 10:51:21;;;;;;;66.22;28.33;;;10.30;99.90;;;;;;5067382;28;20134;-66
2024/03/05 10:53:49;;;;;;;69.45;27.67;;;10.30;99.90;;;;;;5071113;28;20028;-67
2024/03/05 10:56:17;;;;;;;67.80;29.02;;;10.10;99.90;;;;;;5057048;28;20021;-67
2024/03/05 11:01:24;;;;;;;63.05;28.05;;;10.10;99.90;;;;;;5089566;27;20398;-66
2024/03/05 11:03:52;;;;;;;71.25;28.90;;;10.10;99.40;;;;;;5089559;28;20024;-66
2024/03/05 11:06:20;;;;;;;65.30;28.05;;;10.20;96.60;;;;;;5087005;28;20075;-67
2024/03/05 11:08:48;;;;;;;65.13;27.30;;;10.20;95.70;;;;;;5073727;28;20469;-68
2024/03/05 11:11:18;;;;;;;66.72;27.60;;;10.30;94.10;;;;;;5080683;28;20123;-68
2024/03/05 11:13:48;;;;;;;70.43;29.13;;;10.30;89.20;;;;;;5075292;28;20029;-69
2024/03/05 11:16:14;;;;;;;64.25;27.23;;;10.20;87.70;;;;;;5087476;28;20032;-68
2024/03/05 11:18:41;;;;;;;61.72;27.00;;;10.30;90.30;;;;;;5081878;28;20059;-68
2024/03/05 11:21:08;;;;;;;60.30;28.40;;;10.30;80.50;;;;;;5081485;28;20025;-68
2024/03/05 11:23:39;;;;;;;67.93;27.55;;;10.30;79.80;;;;;;5083036;28;20075;-68
2024/03/05 11:26:06;;;;;;;65.93;28.20;;;10.40;73.20;;;;;;5074568;28;20028;-69
2024/03/05 11:28:33;;;;;;;65.53;28.70;;;10.50;72.00;;;;;;5078392;28;20060;-68
2024/03/05 11:31:16;;;;;;;63.03;27.63;;;10.50;57.10;;;;;;5083357;28;20393;-68
2024/03/05 11:33:43;;;;;;;69.00;28.33;;;10.50;60.60;;;;;;5064972;28;20368;-68
2024/03/05 11:36:21;;;;;;;66.57;29.33;;;10.50;56.70;;;;;;5066883;28;20037;-68
2024/03/05 11:39:17;;;;;;;68.13;27.67;;;10.50;69.50;;;;;;5068328;28;20028;-68
2024/03/05 11:41:44;;;;;;;65.82;28.08;;;10.50;62.70;;;;;;5074505;28;20562;-68
2024/03/05 11:44:15;;;;;;;63.80;29.17;;;10.50;51.60;;;;;;5072409;28;20028;-68
2024/03/05 11:49:19;;;;;;;58.22;26.88;;;10.60;53.60;;;;;;5111595;27;20363;-67
2024/03/05 11:51:46;;;;;;;58.53;28.42;;;10.50;38.60;;;;;;5102157;28;20359;-66
2024/03/05 11:54:13;;;;;;;72.63;29.10;;;10.50;51.30;;;;;;5092161;28;20630;-66
2024/03/05 11:56:41;;;;;;;58.53;27.10;;;10.50;50.10;;;;;;5096349;28;20026;-65
2024/03/05 11:59:08;;;;;;;65.30;28.63;;;10.60;41.80;;;;;;5092101;28;20035;-67
2024/03/05 12:01:34;;;;;;;63.83;28.13;;;10.60;27.30;;;;;;5102777;28;20141;-67
2024/03/05 12:04:06;;;;;;;68.28;29.25;;;10.60;36.20;;;;;;5098619;28;20027;-68
2024/03/05 12:06:36;;;;;;;63.05;28.52;;;10.60;36.00;;;;;;5100232;28;20035;-67
2024/03/05 12:09:20;;;;;;;63.50;28.60;;;10.60;29.60;;;;;;5090621;28;20039;-68
2024/03/05 12:12:09;;;;;;;64.40;27.23;;;10.70;22.90;;;;;;5086487;28;20027;-66
2024/03/05 12:14:39;;;;;;;61.25;27.42;;;10.50;22.50;;;;;;5089367;28;20029;-67
2024/03/05 12:17:07;;;;;;;62.38;27.27;;;10.50;28.40;;;;;;5108762;28;20032;-67
2024/03/05 12:19:34;;;;;;;61.40;27.27;;;10.60;31.40;;;;;;5095094;28;20101;-69
2024/03/05 12:22:00;;;;;;;62.42;27.15;;;10.30;32.70;;;;;;5090805;28;20387;-68
2024/03/05 12:24:28;;;;;;;66.70;28.60;;;10.10;49.90;;;;;;5098843;28;20382;-68
2024/03/05 12:26:56;;;;;;;66.32;27.90;;;10.30;58.80;;;;;;5093913;28;20183;-69
2024/03/05 12:29:26;;;;;;;62.90;28.08;;;10.30;48.30;;;;;;5089180;28;20482;-68
2024/03/05 12:31:51;;;;;;;59.15;27.50;;;10.20;52.50;;;;;;5093109;28;20390;-69
2024/03/05 12:34:17;;;;;;;63.15;28.40;;;10.10;56.80;;;;;;5098508;28;20048;-69
2024/03/05 12:36:42;;;;;;;65.43;28.15;;;10.10;64.60;;;;;;5096920;28;20021;-69
2024/03/05 12:39:10;;;;;;;61.75;27.85;;;10.10;71.70;;;;;;5104448;28;20032;-69